# Tabular Observed and Forecast Hydrograph Information
#
# Location: South Fork Pit River - Likely (PLYC1)
#
# File Generation Time: 05/02/2026 at 07:34 AM PDT
# Data Interval: 1 Hour
#
# Most Recent Date & Time of Maximum Observed: 05/02/2026 at 07:00 AM PDT
# Maximum Observed Stage: 2.79 Feet
# Maximum Observed Flow: 122 cfs
#
# Earliest Date & Time of Maximum Forecast: 05/04/2026 at 11:00 PM PDT
# Maximum Forecast Stage: 2.92 Feet
# Maximum Forecast Flow: 144 cfs
#
# OBSERVED
#
# Date & Time (Local) Stage (Feet) Flow (cfs) Trend Observed Status
# ---------------------------------------------------------------------------------
04/27/2026 07 AM PDT 2.40 63 Not Applicable
04/27/2026 08 AM PDT 2.39 62 - Not Applicable
04/27/2026 09 AM PDT 2.40 63 + Not Applicable
04/27/2026 10 AM PDT 2.39 62 - Not Applicable
04/27/2026 11 AM PDT 2.39 62 0 Not Applicable
04/27/2026 12 PM PDT 2.39 62 0 Not Applicable
04/27/2026 01 PM PDT 2.38 60 - Not Applicable
04/27/2026 02 PM PDT 2.38 60 0 Not Applicable
04/27/2026 03 PM PDT 2.60 92 + Not Applicable
04/27/2026 04 PM PDT 2.59 90 - Not Applicable
04/27/2026 05 PM PDT 2.60 92 + Not Applicable
04/27/2026 06 PM PDT 2.60 92 0 Not Applicable
04/27/2026 07 PM PDT 2.60 92 0 Not Applicable
04/27/2026 08 PM PDT 2.60 92 0 Not Applicable
04/27/2026 09 PM PDT 2.58 89 - Not Applicable
04/27/2026 10 PM PDT 2.57 87 - Not Applicable
04/27/2026 11 PM PDT 2.58 89 + Not Applicable
04/28/2026 12 AM PDT 2.58 89 0 Not Applicable
04/28/2026 01 AM PDT 2.58 89 0 Not Applicable
04/28/2026 02 AM PDT 2.58 89 0 Not Applicable
04/28/2026 03 AM PDT 2.58 89 0 Not Applicable
04/28/2026 04 AM PDT 2.58 89 0 Not Applicable
04/28/2026 05 AM PDT 2.58 89 0 Not Applicable
04/28/2026 06 AM PDT 2.57 87 - Not Applicable
04/28/2026 07 AM PDT 2.57 87 0 Not Applicable
04/28/2026 08 AM PDT 2.57 87 0 Not Applicable
04/28/2026 09 AM PDT 2.58 89 + Not Applicable
04/28/2026 10 AM PDT 2.57 87 - Not Applicable
04/28/2026 11 AM PDT 2.57 87 0 Not Applicable
04/28/2026 12 PM PDT 2.61 93 + Not Applicable
04/28/2026 01 PM PDT 2.72 111 + Not Applicable
04/28/2026 02 PM PDT 2.73 112 + Not Applicable
04/28/2026 03 PM PDT 2.73 112 0 Not Applicable
04/28/2026 04 PM PDT 2.73 112 0 Not Applicable
04/28/2026 05 PM PDT 2.72 111 - Not Applicable
04/28/2026 06 PM PDT 2.72 111 0 Not Applicable
04/28/2026 07 PM PDT 2.72 111 0 Not Applicable
04/28/2026 08 PM PDT 2.71 109 - Not Applicable
04/28/2026 09 PM PDT 2.70 108 - Not Applicable
04/28/2026 10 PM PDT 2.70 108 0 Not Applicable
04/28/2026 11 PM PDT 2.70 108 0 Not Applicable
04/29/2026 12 AM PDT 2.70 108 0 Not Applicable
04/29/2026 01 AM PDT 2.70 108 0 Not Applicable
04/29/2026 02 AM PDT 2.71 109 + Not Applicable
04/29/2026 03 AM PDT 2.71 109 0 Not Applicable
04/29/2026 04 AM PDT 2.70 108 - Not Applicable
04/29/2026 05 AM PDT 2.70 108 0 Not Applicable
04/29/2026 06 AM PDT 2.70 108 0 Not Applicable
04/29/2026 07 AM PDT 2.69 106 - Not Applicable
04/29/2026 08 AM PDT 2.70 108 + Not Applicable
04/29/2026 09 AM PDT 2.70 108 0 Not Applicable
04/29/2026 10 AM PDT 2.70 108 0 Not Applicable
04/29/2026 11 AM PDT 2.70 108 0 Not Applicable
04/29/2026 12 PM PDT 2.70 108 0 Not Applicable
04/29/2026 01 PM PDT 2.70 108 0 Not Applicable
04/29/2026 02 PM PDT 2.69 106 - Not Applicable
04/29/2026 03 PM PDT 2.69 106 0 Not Applicable
04/29/2026 04 PM PDT 2.67 103 - Not Applicable
04/29/2026 05 PM PDT 2.67 103 0 Not Applicable
04/29/2026 06 PM PDT 2.65 100 - Not Applicable
04/29/2026 07 PM PDT 2.65 100 0 Not Applicable
04/29/2026 08 PM PDT 2.67 103 + Not Applicable
04/29/2026 09 PM PDT 2.65 100 - Not Applicable
04/29/2026 10 PM PDT 2.65 100 0 Not Applicable
04/29/2026 11 PM PDT 2.66 102 + Not Applicable
04/30/2026 12 AM PDT 2.66 102 0 Not Applicable
04/30/2026 01 AM PDT 2.65 100 - Not Applicable
04/30/2026 02 AM PDT 2.66 102 + Not Applicable
04/30/2026 03 AM PDT 2.66 102 0 Not Applicable
04/30/2026 04 AM PDT 2.65 100 - Not Applicable
04/30/2026 05 AM PDT 2.66 102 + Not Applicable
04/30/2026 06 AM PDT 2.65 100 - Not Applicable
04/30/2026 07 AM PDT 2.65 100 0 Not Applicable
04/30/2026 08 AM PDT 2.65 100 0 Not Applicable
04/30/2026 09 AM PDT 2.69 106 + Not Applicable
04/30/2026 10 AM PDT 2.69 106 0 Not Applicable
04/30/2026 11 AM PDT 2.69 106 0 Not Applicable
04/30/2026 12 PM PDT 2.70 108 + Not Applicable
04/30/2026 01 PM PDT 2.69 106 - Not Applicable
04/30/2026 02 PM PDT 2.68 105 - Not Applicable
04/30/2026 03 PM PDT 2.69 106 + Not Applicable
04/30/2026 04 PM PDT 2.67 103 - Not Applicable
04/30/2026 05 PM PDT 2.69 106 + Not Applicable
04/30/2026 06 PM PDT 2.69 106 0 Not Applicable
04/30/2026 07 PM PDT 2.68 105 - Not Applicable
04/30/2026 08 PM PDT 2.69 106 + Not Applicable
04/30/2026 09 PM PDT 2.67 103 - Not Applicable
04/30/2026 10 PM PDT 2.66 102 - Not Applicable
04/30/2026 11 PM PDT 2.66 102 0 Not Applicable
05/01/2026 12 AM PDT 2.67 103 + Not Applicable
05/01/2026 01 AM PDT 2.67 103 0 Not Applicable
05/01/2026 02 AM PDT 2.67 103 0 Not Applicable
05/01/2026 03 AM PDT 2.66 102 - Not Applicable
05/01/2026 04 AM PDT 2.66 102 0 Not Applicable
05/01/2026 05 AM PDT 2.66 102 0 Not Applicable
05/01/2026 06 AM PDT 2.66 102 0 Not Applicable
05/01/2026 07 AM PDT 2.67 103 + Not Applicable
05/01/2026 08 AM PDT 2.67 103 0 Not Applicable
05/01/2026 09 AM PDT 2.66 102 - Not Applicable
05/01/2026 10 AM PDT 2.66 102 0 Not Applicable
05/01/2026 11 AM PDT 2.66 102 0 Not Applicable
05/01/2026 12 PM PDT 2.67 103 + Not Applicable
05/01/2026 01 PM PDT 2.67 103 0 Not Applicable
05/01/2026 02 PM PDT 2.78 120 + Not Applicable
05/01/2026 03 PM PDT 2.78 120 0 Not Applicable
05/01/2026 04 PM PDT 2.78 120 0 Not Applicable
05/01/2026 05 PM PDT 2.78 120 0 Not Applicable
05/01/2026 06 PM PDT 2.77 119 - Not Applicable
05/01/2026 07 PM PDT 2.78 120 + Not Applicable
05/01/2026 08 PM PDT 2.77 119 - Not Applicable
05/01/2026 09 PM PDT 2.78 120 + Not Applicable
05/01/2026 10 PM PDT 2.77 119 - Not Applicable
05/01/2026 11 PM PDT 2.78 120 + Not Applicable
05/02/2026 12 AM PDT 2.78 120 0 Not Applicable
05/02/2026 01 AM PDT 2.78 120 0 Not Applicable
05/02/2026 02 AM PDT 2.79 122 + Not Applicable
05/02/2026 03 AM PDT 2.79 122 0 Not Applicable
05/02/2026 04 AM PDT 2.79 122 0 Not Applicable
05/02/2026 05 AM PDT 2.79 122 0 Not Applicable
05/02/2026 06 AM PDT 2.79 122 0 Not Applicable
05/02/2026 07 AM PDT 2.79 122 0 Not Applicable
#
# FORECAST
#
# Date & Time (Local) Stage (Feet) Flow (cfs) Trend Forecast Status
# ---------------------------------------------------------------------------------
05/02/2026 08 AM PDT 2.79 122 Not Applicable
05/02/2026 09 AM PDT 2.79 122 0 Not Applicable
05/02/2026 10 AM PDT 2.79 122 0 Not Applicable
05/02/2026 11 AM PDT 2.79 122 0 Not Applicable
05/02/2026 12 PM PDT 2.79 122 0 Not Applicable
05/02/2026 01 PM PDT 2.79 122 0 Not Applicable
05/02/2026 02 PM PDT 2.79 122 0 Not Applicable
05/02/2026 03 PM PDT 2.79 122 0 Not Applicable
05/02/2026 04 PM PDT 2.79 122 0 Not Applicable
05/02/2026 05 PM PDT 2.79 122 0 Not Applicable
05/02/2026 06 PM PDT 2.79 122 0 Not Applicable
05/02/2026 07 PM PDT 2.79 122 0 Not Applicable
05/02/2026 08 PM PDT 2.79 122 0 Not Applicable
05/02/2026 09 PM PDT 2.79 122 0 Not Applicable
05/02/2026 10 PM PDT 2.79 122 0 Not Applicable
05/02/2026 11 PM PDT 2.79 122 0 Not Applicable
05/03/2026 12 AM PDT 2.79 122 0 Not Applicable
05/03/2026 01 AM PDT 2.79 122 0 Not Applicable
05/03/2026 02 AM PDT 2.79 122 0 Not Applicable
05/03/2026 03 AM PDT 2.79 122 0 Not Applicable
05/03/2026 04 AM PDT 2.79 122 0 Not Applicable
05/03/2026 05 AM PDT 2.79 122 0 Not Applicable
05/03/2026 06 AM PDT 2.79 122 0 Not Applicable
05/03/2026 07 AM PDT 2.79 122 0 Not Applicable
05/03/2026 08 AM PDT 2.79 122 0 Not Applicable
05/03/2026 09 AM PDT 2.79 122 0 Not Applicable
05/03/2026 10 AM PDT 2.79 122 0 Not Applicable
05/03/2026 11 AM PDT 2.79 122 0 Not Applicable
05/03/2026 12 PM PDT 2.79 122 0 Not Applicable
05/03/2026 01 PM PDT 2.79 122 0 Not Applicable
05/03/2026 02 PM PDT 2.79 122 0 Not Applicable
05/03/2026 03 PM PDT 2.79 122 0 Not Applicable
05/03/2026 04 PM PDT 2.79 122 0 Not Applicable
05/03/2026 05 PM PDT 2.79 122 0 Not Applicable
05/03/2026 06 PM PDT 2.79 122 0 Not Applicable
05/03/2026 07 PM PDT 2.79 122 0 Not Applicable
05/03/2026 08 PM PDT 2.79 122 0 Not Applicable
05/03/2026 09 PM PDT 2.79 122 0 Not Applicable
05/03/2026 10 PM PDT 2.79 122 0 Not Applicable
05/03/2026 11 PM PDT 2.79 122 0 Not Applicable
05/04/2026 12 AM PDT 2.79 122 0 Not Applicable
05/04/2026 01 AM PDT 2.79 122 0 Not Applicable
05/04/2026 02 AM PDT 2.79 122 0 Not Applicable
05/04/2026 03 AM PDT 2.79 122 0 Not Applicable
05/04/2026 04 AM PDT 2.79 122 0 Not Applicable
05/04/2026 05 AM PDT 2.79 122 0 Not Applicable
05/04/2026 06 AM PDT 2.79 122 0 Not Applicable
05/04/2026 07 AM PDT 2.79 122 0 Not Applicable
05/04/2026 08 AM PDT 2.79 122 0 Not Applicable
05/04/2026 09 AM PDT 2.79 122 0 Not Applicable
05/04/2026 10 AM PDT 2.79 122 0 Not Applicable
05/04/2026 11 AM PDT 2.79 122 0 Not Applicable
05/04/2026 12 PM PDT 2.80 124 + Not Applicable
05/04/2026 01 PM PDT 2.81 125 + Not Applicable
05/04/2026 02 PM PDT 2.82 127 + Not Applicable
05/04/2026 03 PM PDT 2.84 130 + Not Applicable
05/04/2026 04 PM PDT 2.85 132 + Not Applicable
05/04/2026 05 PM PDT 2.86 134 + Not Applicable
05/04/2026 06 PM PDT 2.87 136 + Not Applicable
05/04/2026 07 PM PDT 2.88 137 + Not Applicable
05/04/2026 08 PM PDT 2.89 139 + Not Applicable
05/04/2026 09 PM PDT 2.90 141 + Not Applicable
05/04/2026 10 PM PDT 2.91 143 + Not Applicable
05/04/2026 11 PM PDT 2.92 144 + Not Applicable
05/05/2026 12 AM PDT 2.92 144 0 Not Applicable
05/05/2026 01 AM PDT 2.91 143 - Not Applicable
05/05/2026 02 AM PDT 2.91 143 0 Not Applicable
05/05/2026 03 AM PDT 2.90 141 - Not Applicable
05/05/2026 04 AM PDT 2.89 139 - Not Applicable
05/05/2026 05 AM PDT 2.89 139 0 Not Applicable
05/05/2026 06 AM PDT 2.89 139 0 Not Applicable
05/05/2026 07 AM PDT 2.88 137 - Not Applicable
05/05/2026 08 AM PDT 2.88 137 0 Not Applicable
05/05/2026 09 AM PDT 2.88 137 0 Not Applicable
05/05/2026 10 AM PDT 2.88 137 0 Not Applicable
05/05/2026 11 AM PDT 2.88 137 0 Not Applicable
05/05/2026 12 PM PDT 2.88 137 0 Not Applicable
05/05/2026 01 PM PDT 2.87 136 - Not Applicable
05/05/2026 02 PM PDT 2.87 136 0 Not Applicable
05/05/2026 03 PM PDT 2.87 136 0 Not Applicable
05/05/2026 04 PM PDT 2.87 136 0 Not Applicable
05/05/2026 05 PM PDT 2.87 136 0 Not Applicable
05/05/2026 06 PM PDT 2.87 136 0 Not Applicable
05/05/2026 07 PM PDT 2.87 136 0 Not Applicable
05/05/2026 08 PM PDT 2.87 136 0 Not Applicable
05/05/2026 09 PM PDT 2.87 136 0 Not Applicable
05/05/2026 10 PM PDT 2.87 136 0 Not Applicable
05/05/2026 11 PM PDT 2.87 136 0 Not Applicable
05/06/2026 12 AM PDT 2.87 136 0 Not Applicable
05/06/2026 01 AM PDT 2.87 136 0 Not Applicable
05/06/2026 02 AM PDT 2.87 136 0 Not Applicable
05/06/2026 03 AM PDT 2.87 136 0 Not Applicable
05/06/2026 04 AM PDT 2.87 136 0 Not Applicable
05/06/2026 05 AM PDT 2.87 136 0 Not Applicable
05/06/2026 06 AM PDT 2.87 136 0 Not Applicable
05/06/2026 07 AM PDT 2.86 134 - Not Applicable
05/06/2026 08 AM PDT 2.86 134 0 Not Applicable
05/06/2026 09 AM PDT 2.86 134 0 Not Applicable
05/06/2026 10 AM PDT 2.86 134 0 Not Applicable
05/06/2026 11 AM PDT 2.86 134 0 Not Applicable
05/06/2026 12 PM PDT 2.86 134 0 Not Applicable
05/06/2026 01 PM PDT 2.86 134 0 Not Applicable
05/06/2026 02 PM PDT 2.86 134 0 Not Applicable
05/06/2026 03 PM PDT 2.86 134 0 Not Applicable
05/06/2026 04 PM PDT 2.86 134 0 Not Applicable
05/06/2026 05 PM PDT 2.86 134 0 Not Applicable
05/06/2026 06 PM PDT 2.86 134 0 Not Applicable
05/06/2026 07 PM PDT 2.86 134 0 Not Applicable
05/06/2026 08 PM PDT 2.86 134 0 Not Applicable
05/06/2026 09 PM PDT 2.86 134 0 Not Applicable
05/06/2026 10 PM PDT 2.86 134 0 Not Applicable
05/06/2026 11 PM PDT 2.86 134 0 Not Applicable
05/07/2026 12 AM PDT 2.86 134 0 Not Applicable
05/07/2026 01 AM PDT 2.86 134 0 Not Applicable
05/07/2026 02 AM PDT 2.86 134 0 Not Applicable
05/07/2026 03 AM PDT 2.86 134 0 Not Applicable
05/07/2026 04 AM PDT 2.86 134 0 Not Applicable
05/07/2026 05 AM PDT 2.86 134 0 Not Applicable
#
# NOTE 1: Stages are rounded to the nearest hundredth (.01) of a foot.
# NOTE 2: Flows are rounded to the nearest (1) cfs.
# NOTE 3: Trends are determined using hourly change in unrounded stage and flow.
# NOTE 4: Maximum Values are determined using unrounded stage and flow.
|